createdAt,value
2018-02-18T00:02:16.548Z,0.00
2018-02-18T00:04:44.017Z,0.00
2018-02-18T00:07:11.484Z,0.00
2018-02-18T00:09:38.955Z,0.00
2018-02-18T00:12:06.434Z,0.10
2018-02-18T00:14:34.153Z,0.00
2018-02-18T00:17:01.593Z,0.00
2018-02-18T00:19:29.050Z,0.10
2018-02-18T00:21:56.484Z,0.10
2018-02-18T00:24:23.950Z,0.20
2018-02-18T00:26:51.422Z,0.20
2018-02-18T00:29:18.873Z,0.20
2018-02-18T00:31:46.343Z,0.20
2018-02-18T00:34:13.976Z,0.10
2018-02-18T00:36:41.429Z,0.10
2018-02-18T00:39:08.861Z,0.00
2018-02-18T00:41:36.319Z,-0.10
2018-02-18T00:44:03.793Z,-0.10
2018-02-18T00:46:31.245Z,-0.10
2018-02-18T00:48:58.719Z,-0.20
2018-02-18T00:51:26.191Z,-0.20
2018-02-18T00:53:53.635Z,-0.20
2018-02-18T00:56:21.099Z,-0.20
2018-02-18T00:58:48.557Z,-0.20
2018-02-18T01:01:16.034Z,-0.20
2018-02-18T01:03:43.493Z,-0.10
2018-02-18T01:06:10.966Z,-0.10
2018-02-18T01:08:38.459Z,-0.10
2018-02-18T01:11:06.342Z,-0.10
2018-02-18T01:13:33.883Z,0.00
2018-02-18T01:16:04.477Z,0.00
2018-02-18T01:18:31.938Z,-0.10
2018-02-18T01:20:59.389Z,-0.10
2018-02-18T01:23:26.859Z,-0.20
2018-02-18T01:25:54.322Z,-0.20
2018-02-18T01:28:23.140Z,-0.30
2018-02-18T01:30:50.603Z,-0.30
2018-02-18T01:33:18.052Z,-0.40
2018-02-18T01:35:45.524Z,-0.40
2018-02-18T01:38:13.004Z,-0.40
2018-02-18T01:40:40.451Z,-0.40
2018-02-18T01:43:07.918Z,-0.30
2018-02-18T01:45:35.391Z,-0.40
2018-02-18T01:48:02.841Z,-0.40
2018-02-18T01:50:36.203Z,-0.40
2018-02-18T01:53:03.659Z,-0.40
2018-02-18T01:55:31.101Z,-0.40
2018-02-18T01:57:58.557Z,-0.40
2018-02-18T02:00:26.010Z,-0.50
2018-02-18T02:02:53.478Z,-0.50
2018-02-18T02:05:20.924Z,-0.50
2018-02-18T02:07:48.379Z,-0.50
2018-02-18T02:10:15.830Z,-0.50
2018-02-18T02:12:43.299Z,-0.40
2018-02-18T02:15:10.770Z,-0.40
2018-02-18T02:17:39.317Z,-0.40
2018-02-18T02:20:06.759Z,-0.50
2018-02-18T02:22:34.223Z,-0.40
2018-02-18T02:25:01.668Z,-0.50
2018-02-18T02:27:29.147Z,-0.50
2018-02-18T02:29:56.604Z,-0.60
2018-02-18T02:32:24.072Z,-0.60
2018-02-18T02:34:51.533Z,-0.70
2018-02-18T02:37:18.977Z,-0.70
2018-02-18T02:39:46.457Z,-0.70
2018-02-18T02:42:13.897Z,-0.70
2018-02-18T02:44:41.350Z,-0.70
2018-02-18T02:47:08.833Z,-0.70
2018-02-18T02:49:36.291Z,-0.80
2018-02-18T02:52:03.762Z,-0.80
2018-02-18T02:54:31.226Z,-0.80
2018-02-18T02:56:58.676Z,-0.70
2018-02-18T02:59:26.164Z,-0.80
2018-02-18T03:01:53.618Z,-0.80
2018-02-18T03:04:21.087Z,-0.80
2018-02-18T03:06:48.533Z,-0.80
2018-02-18T03:09:15.983Z,-0.90
2018-02-18T03:11:43.463Z,-0.90
2018-02-18T03:14:11.007Z,-0.90
2018-02-18T03:16:38.480Z,-1.00
2018-02-18T03:19:05.940Z,-1.00
2018-02-18T03:21:33.622Z,-1.00
2018-02-18T03:24:01.108Z,-1.00
2018-02-18T03:26:28.545Z,-1.00
2018-02-18T03:28:56.022Z,-1.00
2018-02-18T03:31:23.505Z,-0.90
2018-02-18T03:33:51.732Z,-0.90
2018-02-18T03:36:19.211Z,-1.00
2018-02-18T03:38:46.681Z,-0.90
2018-02-18T03:41:14.134Z,-0.90
2018-02-18T03:43:41.601Z,-1.00
2018-02-18T03:46:09.052Z,-1.00
2018-02-18T03:48:36.526Z,-1.00
2018-02-18T03:51:03.977Z,-1.00
2018-02-18T03:53:31.450Z,-1.00
2018-02-18T03:55:58.922Z,-1.00
2018-02-18T03:58:26.368Z,-1.00
2018-02-18T04:00:54.136Z,-1.00
2018-02-18T04:03:21.573Z,-1.00
2018-02-18T04:05:49.021Z,-1.00
2018-02-18T04:08:16.488Z,-1.10
2018-02-18T04:10:43.951Z,-1.10
2018-02-18T04:13:11.446Z,-1.10
2018-02-18T04:15:39.192Z,-1.20
2018-02-18T04:18:06.680Z,-1.30
2018-02-18T04:20:34.132Z,-1.30
2018-02-18T04:23:01.608Z,-1.20
2018-02-18T04:25:29.095Z,-1.20
2018-02-18T04:27:56.534Z,-1.20
2018-02-18T04:30:23.985Z,-1.30
2018-02-18T04:32:51.457Z,-1.30
2018-02-18T04:35:18.910Z,-1.30
2018-02-18T04:37:46.382Z,-1.30
2018-02-18T04:40:13.837Z,-1.30
2018-02-18T04:42:41.308Z,-1.30
2018-02-18T04:45:08.781Z,-1.40
2018-02-18T04:47:36.914Z,-1.40
2018-02-18T04:50:04.367Z,-1.50
2018-02-18T04:52:31.832Z,-1.50
2018-02-18T04:54:59.294Z,-1.60
2018-02-18T04:57:26.764Z,-1.60
2018-02-18T04:59:54.218Z,-1.60
2018-02-18T05:02:21.686Z,-1.60
2018-02-18T05:04:49.148Z,-1.60
2018-02-18T05:07:16.643Z,-1.60
2018-02-18T05:09:44.120Z,-1.70
2018-02-18T05:12:11.581Z,-1.70
2018-02-18T05:14:39.069Z,-1.70
2018-02-18T05:17:06.525Z,-1.70
2018-02-18T05:19:33.985Z,-1.80
2018-02-18T05:22:01.497Z,-1.80
2018-02-18T05:24:28.950Z,-1.80
2018-02-18T05:26:57.189Z,-1.80
2018-02-18T05:29:24.630Z,-1.80
2018-02-18T05:31:52.097Z,-1.70
2018-02-18T05:34:19.582Z,-1.70
2018-02-18T05:36:47.036Z,-1.70
2018-02-18T05:39:14.499Z,-1.80
2018-02-18T05:41:41.953Z,-1.80
2018-02-18T05:44:09.402Z,-1.80
2018-02-18T05:46:36.859Z,-1.80
2018-02-18T05:49:04.328Z,-1.80
2018-02-18T05:51:31.794Z,-1.80
2018-02-18T05:53:59.241Z,-1.80
2018-02-18T05:56:26.706Z,-1.80
2018-02-18T05:58:54.163Z,-1.90
2018-02-18T06:01:21.623Z,-1.90
2018-02-18T06:03:49.097Z,-1.90
2018-02-18T06:06:16.558Z,-1.80
2018-02-18T06:08:44.029Z,-1.80
2018-02-18T06:11:11.465Z,-1.70
2018-02-18T06:13:38.904Z,-1.70
2018-02-18T06:16:06.388Z,-1.70
2018-02-18T06:18:33.847Z,-1.70
2018-02-18T06:21:01.305Z,-1.80
2018-02-18T06:23:28.786Z,-1.80
2018-02-18T06:25:56.239Z,-1.80
2018-02-18T06:28:23.710Z,-1.80
2018-02-18T06:30:51.154Z,-1.80
2018-02-18T06:33:18.630Z,-1.80
2018-02-18T06:35:46.072Z,-1.80
2018-02-18T06:38:13.552Z,-1.80
2018-02-18T06:40:41.002Z,-1.80
2018-02-18T06:43:08.463Z,-1.80
2018-02-18T06:45:35.922Z,-1.80
2018-02-18T06:48:03.367Z,-1.80
2018-02-18T06:50:30.828Z,-1.80
2018-02-18T06:52:58.293Z,-1.80
2018-02-18T06:55:25.734Z,-1.80
2018-02-18T06:57:53.970Z,-1.70
2018-02-18T07:00:21.444Z,-1.80
2018-02-18T07:02:48.881Z,-1.70
2018-02-18T07:05:16.358Z,-1.70
2018-02-18T07:07:43.810Z,-1.60
2018-02-18T07:10:11.274Z,-1.60
2018-02-18T07:12:38.725Z,-1.60
2018-02-18T07:15:06.185Z,-1.60
2018-02-18T07:17:33.653Z,-1.60
2018-02-18T07:20:01.109Z,-1.50
2018-02-18T07:22:28.591Z,-1.40
2018-02-18T07:24:56.094Z,-1.40
2018-02-18T07:27:23.492Z,-1.30
2018-02-18T07:29:50.955Z,-1.20
2018-02-18T07:32:18.411Z,-1.10
2018-02-18T07:34:45.866Z,-1.10
2018-02-18T07:37:13.320Z,-1.10
2018-02-18T07:39:40.773Z,-0.80
2018-02-18T07:42:08.251Z,-0.40
2018-02-18T07:44:35.685Z,0.30
2018-02-18T07:47:03.140Z,0.80
2018-02-18T07:49:30.577Z,1.20
2018-02-18T07:51:58.044Z,1.40
2018-02-18T07:54:27.029Z,2.20
2018-02-18T07:56:54.476Z,2.20
2018-02-18T07:59:21.937Z,2.70
2018-02-18T08:01:49.392Z,2.70
2018-02-18T08:04:16.821Z,2.90
2018-02-18T08:06:46.521Z,3.90
2018-02-18T08:09:14.146Z,3.80
2018-02-18T08:11:41.617Z,4.40
2018-02-18T08:14:09.049Z,4.80
2018-02-18T08:16:36.494Z,5.20
2018-02-18T08:19:03.961Z,5.60
2018-02-18T08:21:31.435Z,6.00
2018-02-18T08:23:58.901Z,6.30
2018-02-18T08:26:26.358Z,6.60
2018-02-18T08:28:53.816Z,7.00
2018-02-18T08:31:21.284Z,7.30
2018-02-18T08:33:49.648Z,7.60
2018-02-18T08:36:17.106Z,7.70
2018-02-18T08:38:44.575Z,7.90
2018-02-18T08:41:12.014Z,8.00
2018-02-18T08:43:39.473Z,8.00
2018-02-18T08:46:07.689Z,8.30
2018-02-18T08:48:35.166Z,8.20
2018-02-18T08:51:02.624Z,8.40
2018-02-18T08:53:30.070Z,8.60
2018-02-18T08:55:57.511Z,8.80
2018-02-18T08:58:24.963Z,8.70
2018-02-18T09:00:52.422Z,8.60
2018-02-18T09:03:19.882Z,8.80
2018-02-18T09:05:47.314Z,9.10
2018-02-18T09:08:14.773Z,9.50
2018-02-18T09:10:42.218Z,10.00
2018-02-18T09:13:09.666Z,10.20
2018-02-18T09:15:37.430Z,10.40
2018-02-18T09:18:04.857Z,10.50
2018-02-18T09:20:33.073Z,10.50
2018-02-18T09:23:00.530Z,10.40
2018-02-18T09:25:27.977Z,10.70
2018-02-18T09:27:55.450Z,11.00
2018-02-18T09:30:22.881Z,11.40
2018-02-18T09:32:50.802Z,11.80
2018-02-18T09:35:18.257Z,12.00
2018-02-18T09:37:45.699Z,12.00
2018-02-18T09:40:13.174Z,12.20
2018-02-18T09:42:40.618Z,12.70
2018-02-18T09:45:08.102Z,13.20
2018-02-18T09:47:35.522Z,13.80
2018-02-18T09:50:03.044Z,14.20
2018-02-18T09:52:30.524Z,14.70
2018-02-18T09:54:58.116Z,15.00
2018-02-18T09:57:26.357Z,15.70
2018-02-18T09:59:53.806Z,15.60
2018-02-18T10:02:21.349Z,15.80
2018-02-18T10:04:48.805Z,15.90
2018-02-18T10:07:16.256Z,16.10
2018-02-18T10:09:43.753Z,15.90
2018-02-18T10:12:11.330Z,15.70
2018-02-18T10:14:38.784Z,15.80
2018-02-18T10:17:06.238Z,15.90
2018-02-18T10:19:34.119Z,16.10
2018-02-18T10:22:01.576Z,16.50
2018-02-18T10:24:29.258Z,16.50
2018-02-18T10:26:56.705Z,16.40
2018-02-18T10:29:24.182Z,16.40
2018-02-18T10:31:51.685Z,16.70
2018-02-18T10:34:19.873Z,17.20
2018-02-18T10:36:47.341Z,17.10
2018-02-18T10:39:14.800Z,17.20
2018-02-18T10:41:42.302Z,17.10
2018-02-18T10:44:10.178Z,16.70
2018-02-18T10:46:37.653Z,16.90
2018-02-18T10:49:05.110Z,17.30
2018-02-18T10:51:32.587Z,17.50
2018-02-18T10:54:00.449Z,17.70
2018-02-18T10:56:27.913Z,17.90
2018-02-18T10:58:55.793Z,18.20
2018-02-18T11:01:23.233Z,18.20
2018-02-18T11:03:50.766Z,18.40
2018-02-18T11:06:18.554Z,18.70
2018-02-18T11:08:46.029Z,18.70
2018-02-18T11:11:13.494Z,18.90
2018-02-18T11:13:41.870Z,18.80
2018-02-18T11:16:09.315Z,18.50
2018-02-18T11:18:36.775Z,18.50
2018-02-18T11:21:04.358Z,18.50
2018-02-18T11:23:31.821Z,18.70
2018-02-18T11:25:59.297Z,18.50
2018-02-18T11:28:26.758Z,18.30
2018-02-18T11:30:54.212Z,18.40
2018-02-18T11:33:21.940Z,18.90
2018-02-18T11:35:49.418Z,18.80
2018-02-18T11:38:16.886Z,18.50
2018-02-18T11:40:44.347Z,18.40
2018-02-18T11:43:13.325Z,18.40
2018-02-18T11:45:40.778Z,18.30
2018-02-18T11:48:08.258Z,18.80
2018-02-18T11:50:35.741Z,19.10
2018-02-18T11:53:03.189Z,19.10
2018-02-18T11:55:30.642Z,18.80
2018-02-18T11:57:58.082Z,18.70
2018-02-18T12:00:25.977Z,18.70
2018-02-18T12:02:53.444Z,18.90
2018-02-18T12:05:21.126Z,19.10
2018-02-18T12:07:48.577Z,19.00
2018-02-18T12:10:16.028Z,18.80
2018-02-18T12:12:43.902Z,18.60
2018-02-18T12:15:11.386Z,18.50
2018-02-18T12:17:39.611Z,18.90
2018-02-18T12:20:07.124Z,18.90
2018-02-18T12:22:34.591Z,18.90
2018-02-18T12:25:02.810Z,19.10
2018-02-18T12:27:30.612Z,19.10
2018-02-18T12:29:58.105Z,19.10
2018-02-18T12:32:25.563Z,19.50
2018-02-18T12:34:53.197Z,19.90
2018-02-18T12:37:20.653Z,20.40
2018-02-18T12:39:48.211Z,20.50
2018-02-18T12:42:15.807Z,20.60
2018-02-18T12:44:43.272Z,20.70
2018-02-18T12:47:10.756Z,20.70
2018-02-18T12:49:38.214Z,20.70
2018-02-18T12:52:05.698Z,20.50
2018-02-18T12:54:33.149Z,20.40
2018-02-18T12:57:00.649Z,20.50
2018-02-18T12:59:28.111Z,20.80
2018-02-18T13:01:55.570Z,21.10
2018-02-18T13:04:23.150Z,21.60
2018-02-18T13:06:50.617Z,21.80
2018-02-18T13:09:18.131Z,21.90
2018-02-18T13:11:46.034Z,21.50
2018-02-18T13:14:13.479Z,21.10
2018-02-18T13:16:40.985Z,20.80
2018-02-18T13:19:09.215Z,21.00
2018-02-18T13:21:36.930Z,20.90
2018-02-18T13:24:04.398Z,20.60
2018-02-18T13:26:31.846Z,20.10
2018-02-18T13:28:59.739Z,19.50
2018-02-18T13:31:28.216Z,18.90
2018-02-18T13:33:55.682Z,18.80
2018-02-18T13:36:23.150Z,18.50
2018-02-18T13:38:50.604Z,18.30
2018-02-18T13:41:18.194Z,18.30
2018-02-18T13:43:45.664Z,18.10
2018-02-18T13:46:13.117Z,18.00
2018-02-18T13:48:40.578Z,17.80
2018-02-18T13:51:08.026Z,17.70
2018-02-18T13:53:35.496Z,17.90
2018-02-18T13:56:02.976Z,18.40
2018-02-18T13:58:30.435Z,18.40
2018-02-18T14:00:59.097Z,18.20
2018-02-18T14:03:26.766Z,18.30
2018-02-18T14:05:54.214Z,18.60
2018-02-18T14:08:22.754Z,18.70
2018-02-18T14:10:50.317Z,18.50
2018-02-18T14:13:17.789Z,18.60
2018-02-18T14:15:45.247Z,18.50
2018-02-18T14:18:12.746Z,18.00
2018-02-18T14:20:40.222Z,17.90
2018-02-18T14:23:07.962Z,18.00
2018-02-18T14:25:35.733Z,17.90
2018-02-18T14:28:03.211Z,17.60
2018-02-18T14:30:31.046Z,17.10
2018-02-18T14:32:58.558Z,16.80
2018-02-18T14:35:26.770Z,16.90
2018-02-18T14:37:54.233Z,16.90
2018-02-18T14:40:21.694Z,17.20
2018-02-18T14:43:01.009Z,17.30
2018-02-18T14:45:42.267Z,17.30
2018-02-18T14:48:21.322Z,17.30
2018-02-18T14:51:00.655Z,17.30
2018-02-18T14:53:40.057Z,17.20
2018-02-18T14:56:19.214Z,17.00
2018-02-18T14:58:48.650Z,16.70
2018-02-18T15:01:16.119Z,16.60
2018-02-18T15:03:43.659Z,16.50
2018-02-18T15:06:11.120Z,16.00
2018-02-18T15:08:38.574Z,15.70
2018-02-18T15:11:06.194Z,15.40
2018-02-18T15:13:33.978Z,15.10
2018-02-18T15:18:34.798Z,14.70
2018-02-18T15:21:02.265Z,14.50
2018-02-18T15:23:29.742Z,14.20
2018-02-18T15:25:57.222Z,13.70
2018-02-18T15:28:24.685Z,13.30
2018-02-18T15:30:52.127Z,12.80
2018-02-18T15:33:19.599Z,12.40
2018-02-18T15:35:47.037Z,12.20
2018-02-18T15:38:14.491Z,11.70
2018-02-18T15:40:41.935Z,11.20
2018-02-18T15:43:10.143Z,10.50
2018-02-18T15:45:37.632Z,10.40
2018-02-18T15:48:05.090Z,10.20
2018-02-18T15:50:32.572Z,10.00
2018-02-18T15:53:00.002Z,9.70
2018-02-18T15:55:27.444Z,9.40
2018-02-18T15:57:54.889Z,9.20
2018-02-18T16:00:25.888Z,9.00
2018-02-18T16:02:53.318Z,8.90
2018-02-18T16:05:20.766Z,8.80
2018-02-18T16:07:48.201Z,8.60
2018-02-18T16:10:15.678Z,8.40
2018-02-18T16:12:45.517Z,8.20
2018-02-18T16:15:13.740Z,8.10
2018-02-18T16:17:41.176Z,8.00
2018-02-18T16:20:08.614Z,8.00
2018-02-18T16:22:36.078Z,8.00
2018-02-18T16:25:03.518Z,7.90
2018-02-18T16:27:31.461Z,7.70
2018-02-18T16:29:58.905Z,7.70
2018-02-18T16:32:26.354Z,7.60
2018-02-18T16:34:53.808Z,7.60
2018-02-18T16:37:21.237Z,7.50
2018-02-18T16:39:48.715Z,7.50
2018-02-18T16:42:16.188Z,7.40
2018-02-18T16:44:43.629Z,7.30
2018-02-18T16:47:11.100Z,7.30
2018-02-18T16:49:38.534Z,7.20
2018-02-18T16:52:05.985Z,7.10
2018-02-18T16:54:33.427Z,7.00
2018-02-18T16:57:01.633Z,6.50
2018-02-18T16:59:29.887Z,6.30
2018-02-18T17:01:57.326Z,6.30
2018-02-18T17:04:24.796Z,6.10
2018-02-18T17:06:52.578Z,5.90
2018-02-18T17:09:20.045Z,5.80
2018-02-18T17:11:47.513Z,5.60
2018-02-18T17:14:14.970Z,5.40
2018-02-18T17:16:42.413Z,5.30
2018-02-18T17:19:09.859Z,5.20
2018-02-18T17:21:37.340Z,5.10
2018-02-18T17:24:04.749Z,5.00
2018-02-18T17:26:32.965Z,4.80
2018-02-18T17:29:06.360Z,4.70
2018-02-18T17:31:39.589Z,4.70
2018-02-18T17:34:07.064Z,4.60
2018-02-18T17:36:34.724Z,4.50
2018-02-18T17:39:02.178Z,4.40
2018-02-18T17:41:29.646Z,4.40
2018-02-18T17:43:57.114Z,4.30
2018-02-18T17:46:24.958Z,4.30
2018-02-18T17:48:52.414Z,4.30
2018-02-18T17:51:19.875Z,4.30
2018-02-18T17:53:47.345Z,4.30
2018-02-18T17:56:14.783Z,4.30
2018-02-18T17:58:42.234Z,4.40
2018-02-18T18:01:09.681Z,4.50
2018-02-18T18:03:37.137Z,4.60
2018-02-18T18:06:04.609Z,4.70
2018-02-18T18:08:32.115Z,4.80
2018-02-18T18:10:59.529Z,4.90
2018-02-18T18:13:26.970Z,5.00
2018-02-18T18:15:54.410Z,5.00
2018-02-18T18:18:21.877Z,5.00
2018-02-18T18:20:49.325Z,4.90
2018-02-18T18:23:16.781Z,4.80
2018-02-18T18:25:44.234Z,4.70
2018-02-18T18:28:11.668Z,4.60
2018-02-18T18:30:39.130Z,4.40
2018-02-18T18:33:06.632Z,4.30
2018-02-18T18:35:34.049Z,4.20
2018-02-18T18:38:01.500Z,4.10
2018-02-18T18:40:28.947Z,4.00
2018-02-18T18:42:56.414Z,3.90
2018-02-18T18:45:23.860Z,3.90
2018-02-18T18:47:51.602Z,3.80
2018-02-18T18:50:19.079Z,3.80
2018-02-18T18:52:46.519Z,3.70
2018-02-18T18:55:13.971Z,3.60
2018-02-18T18:57:41.429Z,3.60
2018-02-18T19:00:08.883Z,3.60
2018-02-18T19:02:36.365Z,3.60
2018-02-18T19:05:03.815Z,3.60
2018-02-18T19:07:31.271Z,3.60
2018-02-18T19:09:58.732Z,3.60
2018-02-18T19:12:26.186Z,3.60
2018-02-18T19:14:53.635Z,3.60
2018-02-18T19:17:21.081Z,3.60
2018-02-18T19:19:48.574Z,3.50
2018-02-18T19:22:16.038Z,3.50
2018-02-18T19:24:43.497Z,3.50
2018-02-18T19:27:14.852Z,3.30
2018-02-18T19:29:42.298Z,3.30
2018-02-18T19:32:09.753Z,3.30
2018-02-18T19:34:37.201Z,3.20
2018-02-18T19:37:04.669Z,3.10
2018-02-18T19:39:32.122Z,3.10
2018-02-18T19:41:59.555Z,2.90
2018-02-18T19:44:27.663Z,2.80
2018-02-18T19:46:55.121Z,2.80
2018-02-18T19:49:23.354Z,2.60
2018-02-18T19:51:51.029Z,2.50
2018-02-18T19:54:18.488Z,2.50
2018-02-18T19:59:20.874Z,2.40
2018-02-18T20:01:48.323Z,2.40
2018-02-18T20:04:15.774Z,2.40
2018-02-18T20:06:43.226Z,2.30
2018-02-18T20:09:11.059Z,2.30
2018-02-18T20:11:38.515Z,2.20
2018-02-18T20:14:05.978Z,2.10
2018-02-18T20:16:33.414Z,2.00
2018-02-18T20:19:00.893Z,2.00
2018-02-18T20:21:28.450Z,1.90
2018-02-18T20:23:55.906Z,1.90
2018-02-18T20:26:23.349Z,1.80
2018-02-18T20:28:50.807Z,1.80
2018-02-18T20:31:18.400Z,1.80
2018-02-18T20:33:45.861Z,1.80
2018-02-18T20:36:13.301Z,1.80
2018-02-18T20:38:40.741Z,1.80
2018-02-18T20:41:08.193Z,1.80
2018-02-18T20:43:35.638Z,1.80
2018-02-18T20:46:05.629Z,1.80
2018-02-18T20:48:33.077Z,1.70
2018-02-18T20:51:00.526Z,1.80
2018-02-18T20:53:27.989Z,1.80
2018-02-18T20:55:55.444Z,1.80
2018-02-18T20:58:22.893Z,1.80
2018-02-18T21:00:50.332Z,1.80
2018-02-18T21:03:18.545Z,1.80
2018-02-18T21:05:46.013Z,1.70
2018-02-18T21:08:13.453Z,1.70
2018-02-18T21:10:40.920Z,1.70
2018-02-18T21:13:08.402Z,1.80
2018-02-18T21:15:35.830Z,1.80
2018-02-18T21:18:03.303Z,1.80
2018-02-18T21:20:30.737Z,1.80
2018-02-18T21:22:58.207Z,1.80
2018-02-18T21:25:25.653Z,1.80
2018-02-18T21:27:53.103Z,1.80
2018-02-18T21:30:20.552Z,1.80
2018-02-18T21:32:47.998Z,1.70
2018-02-18T21:35:15.442Z,1.70
2018-02-18T21:37:42.892Z,1.60
2018-02-18T21:40:10.367Z,1.60
2018-02-18T21:42:37.801Z,1.60
2018-02-18T21:45:05.272Z,1.60
2018-02-18T21:47:32.714Z,1.60
2018-02-18T21:50:00.933Z,1.50
2018-02-18T21:52:28.721Z,1.40
2018-02-18T21:54:56.181Z,1.50
2018-02-18T21:57:23.626Z,1.40
2018-02-18T21:59:51.080Z,1.30
2018-02-18T22:02:18.551Z,1.30
2018-02-18T22:04:46.002Z,1.30
2018-02-18T22:07:13.465Z,1.20
2018-02-18T22:09:40.928Z,1.20
2018-02-18T22:12:08.395Z,1.30
2018-02-18T22:14:35.839Z,1.30
2018-02-18T22:17:03.314Z,1.30
2018-02-18T22:19:30.768Z,1.20
2018-02-18T22:21:58.239Z,1.20
2018-02-18T22:24:25.685Z,1.30
2018-02-18T22:26:53.156Z,1.30
2018-02-18T22:29:20.598Z,1.30
2018-02-18T22:31:48.079Z,1.40
2018-02-18T22:34:15.516Z,1.40
2018-02-18T22:36:42.963Z,1.40
2018-02-18T22:39:10.431Z,1.40
2018-02-18T22:41:37.895Z,1.40
2018-02-18T22:44:05.360Z,1.40
2018-02-18T22:46:32.797Z,1.40
2018-02-18T22:49:00.237Z,1.40
2018-02-18T22:51:27.718Z,1.50
2018-02-18T22:53:55.149Z,1.50
2018-02-18T22:56:22.611Z,1.50
2018-02-18T22:58:50.059Z,1.50
2018-02-18T23:01:17.502Z,1.50
2018-02-18T23:03:45.033Z,1.60
2018-02-18T23:06:12.418Z,1.60
2018-02-18T23:08:39.896Z,1.60
2018-02-18T23:11:07.341Z,1.60
2018-02-18T23:13:35.244Z,1.60
2018-02-18T23:16:06.000Z,1.60
2018-02-18T23:18:33.445Z,1.60
2018-02-18T23:21:08.638Z,1.60
2018-02-18T23:23:36.072Z,1.60
2018-02-18T23:26:03.525Z,1.60
2018-02-18T23:28:30.974Z,1.60
2018-02-18T23:30:59.597Z,1.60
2018-02-18T23:33:27.066Z,1.60
2018-02-18T23:35:54.500Z,1.60
2018-02-18T23:38:22.182Z,1.50
2018-02-18T23:40:49.619Z,1.50
2018-02-18T23:43:17.093Z,1.50
2018-02-18T23:45:44.678Z,1.50
2018-02-18T23:48:12.129Z,1.50
2018-02-18T23:50:39.574Z,1.50
2018-02-18T23:53:07.016Z,1.50
2018-02-18T23:55:34.453Z,1.50
2018-02-18T23:58:01.908Z,1.40
